Gooik, Belgium
Current Conditions -  °F | °C
As of 11:25 AM on Friday 31 Oct 2014 (Local Time) from EBCV Reporting Station
Few Clouds Few Clouds  
Wind Chill: 16°   Ceiling: Unl
Heat Index: 16°   Visibility: 6mi
Dew Point: 12°   Wind: 8mph
Humidity: 77%   Direction: 190°S
Pressure: 30.18"   Gusts: NA
Location:  50.79°N, 4.11°E
Report Text: EBCV 311025Z AUTO 19007KT 9999 FEW230/// 16/12 Q1022 BLU
Loading
Personal Weather Stations






























Interactive Weather Map
Tropical Storm Tracking
New forecast layout! Learn more

10-Day Weather Forecast

Advertisements
Track Severe Weather on mobile